createdAt,value
2022-12-24T00:00:04.254Z,11.10
2022-12-24T00:02:31.114Z,11.00
2022-12-24T00:05:01.187Z,10.90
2022-12-24T00:07:28.557Z,10.80
2022-12-24T00:09:55.159Z,10.80
2022-12-24T00:12:22.073Z,10.70
2022-12-24T00:14:48.732Z,10.70
2022-12-24T00:17:15.439Z,10.90
2022-12-24T00:19:43.233Z,11.10
2022-12-24T00:22:09.876Z,11.10
2022-12-24T00:24:36.539Z,11.20
2022-12-24T00:27:03.621Z,11.20
2022-12-24T00:29:30.219Z,11.20
2022-12-24T00:31:56.853Z,11.30
2022-12-24T00:34:24.081Z,11.30
2022-12-24T00:36:51.195Z,11.30
2022-12-24T00:39:18.459Z,11.20
2022-12-24T00:41:45.115Z,11.10
2022-12-24T00:44:12.091Z,11.00
2022-12-24T00:46:40.638Z,10.90
2022-12-24T00:49:08.828Z,10.80
2022-12-24T00:51:36.271Z,10.70
2022-12-24T00:54:03.234Z,10.60
2022-12-24T00:56:30.305Z,10.50
2022-12-24T00:58:56.944Z,10.40
2022-12-24T01:01:24.486Z,10.50
2022-12-24T01:03:51.617Z,10.50
2022-12-24T01:06:20.539Z,10.60
2022-12-24T01:08:50.929Z,10.70
2022-12-24T01:11:17.898Z,10.70
2022-12-24T01:13:44.498Z,10.90
2022-12-24T01:16:19.915Z,10.90
2022-12-24T01:18:47.001Z,10.90
2022-12-24T01:21:13.726Z,10.80
2022-12-24T01:23:40.400Z,10.70
2022-12-24T01:26:07.114Z,10.70
2022-12-24T01:28:33.977Z,10.50
2022-12-24T01:31:00.926Z,10.50
2022-12-24T01:33:30.804Z,10.40
2022-12-24T01:35:57.485Z,10.50
2022-12-24T01:38:24.107Z,10.40
2022-12-24T01:41:09.660Z,10.20
2022-12-24T01:43:36.440Z,10.10
2022-12-24T01:46:17.632Z,10.00
2022-12-24T01:49:02.440Z,9.90
2022-12-24T01:51:43.535Z,9.80
2022-12-24T01:54:12.003Z,9.80
2022-12-24T01:56:44.793Z,9.80
2022-12-24T01:59:14.815Z,9.90
2022-12-24T02:01:41.636Z,9.70
2022-12-24T02:04:32.153Z,9.90
2022-12-24T02:06:59.056Z,9.60
2022-12-24T02:09:26.044Z,9.50
2022-12-24T02:11:52.958Z,9.50
2022-12-24T02:14:19.961Z,9.70
2022-12-24T02:16:49.303Z,9.40
2022-12-24T02:19:47.833Z,9.40
2022-12-24T02:22:17.220Z,9.40
2022-12-24T02:24:54.656Z,9.30
2022-12-24T02:27:24.701Z,9.30
2022-12-24T02:30:03.212Z,9.40
2022-12-24T02:32:44.681Z,9.30
2022-12-24T02:35:42.309Z,9.30
2022-12-24T02:38:26.052Z,9.30
2022-12-24T02:40:57.981Z,9.30
2022-12-24T02:43:29.782Z,9.20
2022-12-24T02:46:01.025Z,9.20
2022-12-24T02:48:30.183Z,9.10
2022-12-24T02:50:59.111Z,9.00
2022-12-24T02:53:25.766Z,9.00
2022-12-24T02:55:59.543Z,8.90
2022-12-24T02:58:59.351Z,8.80
2022-12-24T03:01:48.019Z,8.70
2022-12-24T03:04:43.703Z,8.60
2022-12-24T03:07:21.791Z,8.60
2022-12-24T03:10:00.123Z,8.60
2022-12-24T03:12:37.896Z,8.50
2022-12-24T03:15:08.171Z,8.50
2022-12-24T03:17:37.640Z,8.50
2022-12-24T03:20:06.627Z,8.40
2022-12-24T03:22:34.868Z,8.40
2022-12-24T03:25:01.765Z,8.50
2022-12-24T03:27:30.669Z,8.40
2022-12-24T03:29:57.619Z,8.40
2022-12-24T03:32:33.367Z,8.40
2022-12-24T03:35:00.143Z,8.40
2022-12-24T03:37:27.181Z,8.40
2022-12-24T03:39:53.841Z,8.30
2022-12-24T03:42:20.441Z,8.40
2022-12-24T03:44:47.157Z,8.50
2022-12-24T03:47:13.776Z,8.50
2022-12-24T03:49:41.009Z,8.40
2022-12-24T03:52:07.692Z,8.50
2022-12-24T03:54:34.306Z,8.40
2022-12-24T03:57:00.966Z,8.50
2022-12-24T03:59:27.896Z,8.50
2022-12-24T04:01:54.706Z,8.50
2022-12-24T04:04:21.471Z,8.50
2022-12-24T04:06:48.173Z,8.50
2022-12-24T04:09:15.711Z,8.60
2022-12-24T04:11:42.322Z,8.60
2022-12-24T04:14:08.992Z,8.60
2022-12-24T04:16:35.667Z,8.60
2022-12-24T04:19:02.555Z,8.60
2022-12-24T04:21:29.156Z,8.60
2022-12-24T04:23:55.864Z,8.60
2022-12-24T04:26:22.533Z,8.60
2022-12-24T04:28:49.124Z,8.60
2022-12-24T04:31:17.703Z,8.60
2022-12-24T04:33:45.354Z,8.60
2022-12-24T04:36:14.618Z,8.60
2022-12-24T04:38:41.218Z,8.60
2022-12-24T04:41:13.742Z,8.60
2022-12-24T04:43:42.949Z,8.60
2022-12-24T04:46:21.921Z,8.60
2022-12-24T04:48:50.443Z,8.60
2022-12-24T04:51:18.067Z,8.60
2022-12-24T04:53:45.005Z,8.60
2022-12-24T04:56:23.451Z,8.60
2022-12-24T04:58:50.977Z,8.60
2022-12-24T05:01:23.580Z,8.60
2022-12-24T05:03:50.757Z,8.60
2022-12-24T05:06:24.632Z,8.50
2022-12-24T05:08:54.171Z,8.50
2022-12-24T05:11:20.763Z,8.40
2022-12-24T05:13:48.249Z,8.40
2022-12-24T05:16:17.441Z,8.30
2022-12-24T05:18:44.544Z,8.30
2022-12-24T05:21:17.645Z,8.30
2022-12-24T05:24:02.800Z,8.20
2022-12-24T05:26:40.249Z,8.10
2022-12-24T05:29:07.835Z,8.10
2022-12-24T05:31:36.015Z,8.10
2022-12-24T05:34:03.235Z,8.10
2022-12-24T05:36:30.443Z,8.00
2022-12-24T05:38:57.116Z,8.00
2022-12-24T05:41:23.971Z,7.90
2022-12-24T05:43:51.167Z,7.90
2022-12-24T05:46:20.024Z,7.90
2022-12-24T05:48:48.097Z,7.80
2022-12-24T05:51:19.591Z,7.80
2022-12-24T05:53:47.262Z,7.70
2022-12-24T05:56:17.127Z,7.70
2022-12-24T05:58:43.941Z,7.70
2022-12-24T06:01:11.273Z,7.60
2022-12-24T06:03:38.459Z,7.50
2022-12-24T06:06:08.252Z,7.50
2022-12-24T06:08:36.733Z,7.50
2022-12-24T06:11:06.326Z,7.40
2022-12-24T06:13:34.788Z,7.40
2022-12-24T06:16:03.402Z,7.40
2022-12-24T06:18:31.615Z,7.50
2022-12-24T06:20:59.208Z,7.50
2022-12-24T06:23:28.435Z,7.50
2022-12-24T06:25:57.207Z,7.50
2022-12-24T06:28:24.069Z,7.50
2022-12-24T06:30:52.713Z,7.50
2022-12-24T06:33:21.282Z,7.50
2022-12-24T06:35:48.448Z,7.50
2022-12-24T06:38:15.923Z,7.50
2022-12-24T06:40:45.110Z,7.50
2022-12-24T06:43:12.707Z,7.60
2022-12-24T06:45:39.902Z,7.60
2022-12-24T06:48:06.799Z,7.50
2022-12-24T06:50:34.259Z,7.60
2022-12-24T06:53:01.038Z,7.70
2022-12-24T06:55:27.733Z,7.70
2022-12-24T06:57:54.351Z,7.80
2022-12-24T07:00:21.884Z,7.80
2022-12-24T07:02:48.735Z,7.80
2022-12-24T07:05:15.969Z,7.80
2022-12-24T07:07:44.367Z,7.80
2022-12-24T07:10:13.277Z,7.70
2022-12-24T07:12:39.896Z,7.60
2022-12-24T07:15:07.253Z,7.50
2022-12-24T07:17:34.206Z,7.60
2022-12-24T07:20:00.878Z,7.50
2022-12-24T07:22:27.519Z,7.50
2022-12-24T07:24:54.206Z,7.50
2022-12-24T07:27:21.925Z,7.40
2022-12-24T07:29:48.583Z,7.40
2022-12-24T07:32:15.396Z,7.30
2022-12-24T07:34:42.021Z,7.30
2022-12-24T07:37:08.653Z,7.30
2022-12-24T07:39:35.252Z,7.20
2022-12-24T07:42:02.296Z,7.20
2022-12-24T07:44:28.877Z,7.20
2022-12-24T07:46:55.629Z,7.30
2022-12-24T07:49:22.312Z,7.30
2022-12-24T07:51:48.926Z,7.40
2022-12-24T07:54:15.546Z,7.40
2022-12-24T07:56:43.090Z,7.50
2022-12-24T07:59:12.887Z,7.60
2022-12-24T08:01:40.144Z,7.60
2022-12-24T08:04:07.070Z,7.50
2022-12-24T08:06:33.740Z,7.50
2022-12-24T08:09:00.347Z,7.50
2022-12-24T08:11:27.046Z,7.40
2022-12-24T08:13:53.733Z,7.40
2022-12-24T08:16:20.425Z,7.40
2022-12-24T08:18:47.259Z,7.50
2022-12-24T08:21:13.868Z,7.60
2022-12-24T08:23:40.497Z,7.60
2022-12-24T08:26:08.978Z,7.60
2022-12-24T08:28:36.069Z,7.60
2022-12-24T08:31:02.996Z,7.60
2022-12-24T08:33:29.918Z,7.60
2022-12-24T08:35:56.961Z,7.80
2022-12-24T08:38:23.984Z,7.80
2022-12-24T08:40:53.555Z,7.80
2022-12-24T08:43:20.296Z,7.80
2022-12-24T08:45:49.202Z,7.80
2022-12-24T08:48:15.957Z,7.80
2022-12-24T08:50:43.007Z,7.80
2022-12-24T08:53:10.506Z,7.70
2022-12-24T08:55:37.352Z,7.70
2022-12-24T08:58:04.009Z,7.60
2022-12-24T09:00:30.852Z,7.60
2022-12-24T09:02:57.905Z,7.50
2022-12-24T09:05:26.007Z,7.50
2022-12-24T09:07:52.906Z,7.50
2022-12-24T09:10:19.577Z,7.60
2022-12-24T09:12:46.429Z,7.80
2022-12-24T09:15:14.265Z,7.90
2022-12-24T09:17:41.140Z,8.00
2022-12-24T09:20:08.418Z,8.10
2022-12-24T09:22:37.064Z,8.10
2022-12-24T09:25:04.741Z,8.20
2022-12-24T09:27:31.782Z,8.20
2022-12-24T09:29:58.547Z,8.30
2022-12-24T09:32:25.231Z,8.40
2022-12-24T09:34:51.835Z,8.50
2022-12-24T09:37:18.621Z,8.60
2022-12-24T09:39:45.268Z,8.80
2022-12-24T09:42:48.703Z,8.80
2022-12-24T09:45:33.134Z,8.90
2022-12-24T09:48:15.521Z,9.20
2022-12-24T09:51:19.980Z,9.30
2022-12-24T09:53:49.738Z,9.40
2022-12-24T09:56:20.096Z,9.40
2022-12-24T09:58:50.928Z,9.50
2022-12-24T10:01:19.056Z,9.80
2022-12-24T10:03:46.652Z,10.10
2022-12-24T10:06:20.082Z,10.40
2022-12-24T10:09:26.138Z,10.60
2022-12-24T10:12:03.867Z,10.40
2022-12-24T10:14:48.531Z,10.40
2022-12-24T10:17:27.302Z,10.50
2022-12-24T10:20:04.826Z,10.60
2022-12-24T10:23:07.509Z,10.60
2022-12-24T10:25:52.379Z,10.60
2022-12-24T10:28:24.942Z,10.60
2022-12-24T10:30:58.015Z,10.60
2022-12-24T10:33:46.596Z,10.70
2022-12-24T10:36:25.501Z,10.70
2022-12-24T10:38:52.178Z,10.70
2022-12-24T10:41:19.130Z,10.70
2022-12-24T10:43:47.407Z,10.70
2022-12-24T10:46:21.546Z,10.70
2022-12-24T10:49:05.951Z,10.80
2022-12-24T10:51:57.857Z,10.80
2022-12-24T10:54:27.871Z,10.90
2022-12-24T10:57:02.670Z,10.90
2022-12-24T10:59:51.661Z,10.90
2022-12-24T11:02:35.183Z,10.70
2022-12-24T11:05:05.826Z,10.80
2022-12-24T11:07:34.376Z,10.70
2022-12-24T11:10:04.119Z,10.80
2022-12-24T11:12:37.658Z,10.90
2022-12-24T11:15:17.940Z,11.00
2022-12-24T11:17:57.613Z,11.00
2022-12-24T11:20:28.649Z,11.00
2022-12-24T11:22:56.448Z,11.10
2022-12-24T11:25:33.712Z,11.10
2022-12-24T11:28:45.709Z,11.00
2022-12-24T11:31:20.935Z,11.00
2022-12-24T11:33:50.980Z,10.80
2022-12-24T11:36:23.116Z,10.80
2022-12-24T11:38:59.136Z,10.80
2022-12-24T11:41:26.540Z,10.80
2022-12-24T11:44:03.655Z,10.80
2022-12-24T11:46:52.232Z,10.70
2022-12-24T11:49:32.375Z,10.70
2022-12-24T11:52:25.423Z,10.80
2022-12-24T11:55:16.661Z,10.80
2022-12-24T11:58:05.796Z,10.90
2022-12-24T12:00:32.399Z,10.90
2022-12-24T12:03:02.096Z,11.00
2022-12-24T12:05:33.032Z,11.00
2022-12-24T12:08:13.812Z,11.00
2022-12-24T12:10:43.359Z,11.00
2022-12-24T12:13:22.968Z,11.00
2022-12-24T12:16:14.775Z,11.00
2022-12-24T12:18:46.441Z,11.00
2022-12-24T12:21:19.175Z,11.00
2022-12-24T12:24:19.490Z,10.90
2022-12-24T12:26:47.533Z,10.80
2022-12-24T12:29:32.716Z,10.80
2022-12-24T12:32:20.420Z,10.80
2022-12-24T12:35:09.929Z,10.70
2022-12-24T12:37:40.658Z,10.70
2022-12-24T12:40:17.625Z,10.70
2022-12-24T12:43:10.804Z,10.70
2022-12-24T12:45:54.202Z,10.70
2022-12-24T12:49:05.294Z,10.80
2022-12-24T12:51:51.492Z,10.90
2022-12-24T12:54:24.458Z,10.90
2022-12-24T12:56:56.403Z,10.90
2022-12-24T12:59:43.121Z,11.00
2022-12-24T13:02:34.527Z,11.20
2022-12-24T13:05:46.232Z,11.40
2022-12-24T13:08:33.561Z,11.60
2022-12-24T13:11:17.941Z,11.70
2022-12-24T13:14:16.708Z,11.70
2022-12-24T13:17:09.482Z,11.70
2022-12-24T13:19:54.999Z,11.70
2022-12-24T13:22:22.716Z,11.70
2022-12-24T13:24:53.013Z,11.90
2022-12-24T13:27:32.853Z,12.10
2022-12-24T13:30:32.156Z,12.20
2022-12-24T13:32:58.929Z,12.20
2022-12-24T13:35:37.563Z,12.10
2022-12-24T13:38:29.488Z,12.10
2022-12-24T13:41:16.593Z,12.10
2022-12-24T13:44:14.877Z,12.10
2022-12-24T13:47:04.745Z,12.00
2022-12-24T13:49:46.828Z,11.80
2022-12-24T13:52:16.312Z,11.70
2022-12-24T13:55:08.988Z,11.50
2022-12-24T13:57:54.596Z,11.50
2022-12-24T14:00:21.267Z,11.30
2022-12-24T14:03:02.493Z,11.30
2022-12-24T14:05:47.041Z,11.20
2022-12-24T14:08:24.746Z,11.10
2022-12-24T14:11:11.438Z,11.00
2022-12-24T14:13:37.980Z,11.00
2022-12-24T14:16:42.026Z,10.90
2022-12-24T14:19:33.690Z,10.90
2022-12-24T14:22:14.526Z,10.90
2022-12-24T14:24:51.356Z,10.80
2022-12-24T14:27:23.910Z,10.70
2022-12-24T14:29:57.372Z,10.60
2022-12-24T14:32:24.194Z,10.60
2022-12-24T14:35:15.832Z,10.60
2022-12-24T14:37:47.334Z,10.60
2022-12-24T14:40:21.460Z,10.60
2022-12-24T14:43:24.733Z,10.60
2022-12-24T14:46:22.582Z,10.70
2022-12-24T14:49:07.150Z,10.70
2022-12-24T14:52:04.929Z,10.60
2022-12-24T14:54:35.440Z,10.30
2022-12-24T14:57:12.297Z,10.10
2022-12-24T14:59:53.716Z,9.90
2022-12-24T15:02:48.239Z,9.80
2022-12-24T15:05:29.604Z,9.60
2022-12-24T15:07:57.969Z,9.50
2022-12-24T15:10:29.606Z,9.40
2022-12-24T15:12:58.402Z,9.30
2022-12-24T15:15:25.239Z,9.30
2022-12-24T15:17:52.332Z,9.40
2022-12-24T15:20:22.300Z,9.00
2022-12-24T15:22:52.818Z,9.30
2022-12-24T15:25:24.417Z,9.40
2022-12-24T15:27:51.518Z,9.40
2022-12-24T15:30:28.351Z,9.40
2022-12-24T15:32:57.455Z,9.40
2022-12-24T15:35:42.455Z,9.30
2022-12-24T15:38:33.903Z,9.20
2022-12-24T15:41:03.567Z,9.30
2022-12-24T15:43:31.458Z,8.90
2022-12-24T15:45:58.571Z,9.00
2022-12-24T15:48:27.711Z,9.00
2022-12-24T15:51:00.486Z,9.00
2022-12-24T15:53:37.442Z,9.00
2022-12-24T15:56:13.226Z,9.00
2022-12-24T15:58:45.526Z,8.90
2022-12-24T16:01:15.399Z,8.90
2022-12-24T16:03:51.434Z,8.90
2022-12-24T16:06:18.597Z,8.90
2022-12-24T16:08:46.038Z,8.80
2022-12-24T16:11:23.626Z,8.80
2022-12-24T16:14:10.871Z,8.70
2022-12-24T16:16:41.985Z,8.70
2022-12-24T16:19:34.241Z,8.70
2022-12-24T16:22:24.662Z,8.70
2022-12-24T16:24:52.643Z,8.70
2022-12-24T16:27:19.247Z,8.70
2022-12-24T16:29:46.851Z,8.70
2022-12-24T16:32:28.447Z,8.60
2022-12-24T16:34:55.102Z,8.60
2022-12-24T16:37:21.762Z,8.90
2022-12-24T16:39:48.729Z,8.60
2022-12-24T16:42:33.787Z,8.50
2022-12-24T16:45:00.417Z,8.60
2022-12-24T16:47:35.850Z,8.60
2022-12-24T16:50:13.984Z,8.60
2022-12-24T16:52:41.282Z,8.70
2022-12-24T16:55:09.397Z,8.70
2022-12-24T16:57:36.084Z,8.70
2022-12-24T17:00:06.501Z,8.80
2022-12-24T17:02:33.300Z,8.70
2022-12-24T17:04:59.982Z,8.70
2022-12-24T17:07:26.668Z,8.70
2022-12-24T17:09:53.264Z,8.70
2022-12-24T17:12:21.153Z,8.70
2022-12-24T17:14:47.776Z,8.70
2022-12-24T17:17:21.340Z,8.90
2022-12-24T17:19:47.917Z,8.60
2022-12-24T17:22:14.632Z,8.60
2022-12-24T17:24:41.436Z,8.40
2022-12-24T17:27:08.105Z,8.50
2022-12-24T17:29:35.368Z,8.70
2022-12-24T17:32:01.976Z,8.50
2022-12-24T17:34:28.901Z,8.80
2022-12-24T17:36:55.596Z,8.50
2022-12-24T17:39:27.473Z,8.50
2022-12-24T17:41:54.856Z,8.60
2022-12-24T17:44:21.451Z,8.90
2022-12-24T17:47:31.272Z,8.60
2022-12-24T17:49:54.004Z,8.30
2022-12-24T17:52:22.943Z,8.70
2022-12-24T17:54:49.542Z,8.70
2022-12-24T17:57:16.214Z,8.70
2022-12-24T17:59:50.509Z,8.70
2022-12-24T18:02:17.354Z,9.00
2022-12-24T18:04:51.582Z,8.70
2022-12-24T18:07:18.187Z,8.70
2022-12-24T18:09:51.609Z,8.70
2022-12-24T18:12:18.331Z,8.80
2022-12-24T18:14:44.997Z,8.80
2022-12-24T18:17:13.906Z,8.80
2022-12-24T18:19:40.681Z,9.80
2022-12-24T18:22:07.307Z,8.70
2022-12-24T18:24:36.964Z,9.10
2022-12-24T18:27:03.637Z,8.80
2022-12-24T18:29:30.219Z,8.90
2022-12-24T18:31:59.490Z,8.80
2022-12-24T18:34:26.171Z,8.80
2022-12-24T18:36:55.429Z,8.80
2022-12-24T18:39:22.643Z,8.80
2022-12-24T18:41:49.560Z,8.80
2022-12-24T18:44:22.549Z,8.80
2022-12-24T18:46:51.479Z,8.80
2022-12-24T18:49:18.061Z,8.80
2022-12-24T18:51:47.314Z,8.80
2022-12-24T18:54:13.880Z,8.80
2022-12-24T18:56:40.469Z,8.80
2022-12-24T18:59:10.524Z,8.90
2022-12-24T19:01:37.393Z,9.10
2022-12-24T19:04:04.334Z,9.10
2022-12-24T19:06:33.046Z,9.20
2022-12-24T19:09:01.214Z,9.20
2022-12-24T19:11:36.893Z,9.30
2022-12-24T19:14:05.840Z,9.30
2022-12-24T19:16:37.466Z,9.40
2022-12-24T19:19:06.169Z,9.50
2022-12-24T19:21:33.337Z,9.50
2022-12-24T19:24:00.119Z,9.50
2022-12-24T19:26:27.087Z,9.50
2022-12-24T19:28:54.372Z,9.50
2022-12-24T19:31:24.578Z,9.50
2022-12-24T19:33:53.594Z,9.40
2022-12-24T19:36:28.119Z,9.50
2022-12-24T19:38:56.337Z,9.50
2022-12-24T19:41:28.318Z,9.50
2022-12-24T19:43:57.372Z,9.50
2022-12-24T19:46:28.128Z,9.50
2022-12-24T19:48:57.293Z,9.30
2022-12-24T19:51:25.223Z,9.40
2022-12-24T19:53:53.199Z,9.50
2022-12-24T19:56:21.736Z,9.50
2022-12-24T19:58:51.495Z,9.60
2022-12-24T20:01:20.730Z,9.60
2022-12-24T20:03:49.308Z,9.70
2022-12-24T20:06:17.801Z,9.70
2022-12-24T20:08:44.789Z,9.70
2022-12-24T20:11:14.868Z,9.70
2022-12-24T20:13:41.958Z,9.70
2022-12-24T20:16:11.952Z,9.70
2022-12-24T20:18:38.981Z,9.70
2022-12-24T20:21:08.780Z,9.70
2022-12-24T20:23:38.407Z,9.70
2022-12-24T20:26:06.789Z,9.60
2022-12-24T20:28:35.251Z,9.60
2022-12-24T20:31:02.238Z,9.50
2022-12-24T20:33:28.803Z,9.60
2022-12-24T20:35:55.351Z,9.50
2022-12-24T20:38:21.968Z,9.50
2022-12-24T20:40:48.528Z,9.60
2022-12-24T20:43:16.701Z,9.60
2022-12-24T20:45:52.736Z,9.50
2022-12-24T20:48:19.582Z,9.50
2022-12-24T20:50:46.381Z,9.50
2022-12-24T20:53:13.281Z,9.50
2022-12-24T20:55:39.920Z,9.60
2022-12-24T20:58:06.560Z,9.60
2022-12-24T21:00:33.263Z,9.60
2022-12-24T21:02:59.978Z,9.60
2022-12-24T21:05:26.635Z,9.60
2022-12-24T21:07:53.225Z,9.60
2022-12-24T21:10:19.848Z,9.50
2022-12-24T21:12:49.831Z,9.40
2022-12-24T21:15:21.491Z,9.40
2022-12-24T21:17:48.688Z,9.40
2022-12-24T21:20:16.795Z,9.30
2022-12-24T21:22:44.143Z,9.30
2022-12-24T21:25:12.237Z,9.40
2022-12-24T21:27:39.185Z,9.40
2022-12-24T21:30:08.959Z,9.20
2022-12-24T21:32:36.670Z,9.40
2022-12-24T21:35:03.894Z,9.50
2022-12-24T21:37:30.665Z,9.50
2022-12-24T21:39:57.216Z,9.60
2022-12-24T21:42:23.902Z,9.70
2022-12-24T21:44:50.685Z,9.60
2022-12-24T21:47:17.294Z,9.70
2022-12-24T21:50:02.545Z,9.60
2022-12-24T21:52:29.084Z,9.60
2022-12-24T21:54:55.853Z,9.60
2022-12-24T21:57:40.973Z,9.50
2022-12-24T22:00:24.277Z,9.50
2022-12-24T22:02:56.662Z,9.40
2022-12-24T22:05:25.930Z,9.30
2022-12-24T22:08:12.374Z,9.20
2022-12-24T22:10:58.625Z,9.20
2022-12-24T22:13:25.915Z,9.10
2022-12-24T22:15:53.737Z,9.10
2022-12-24T22:18:23.275Z,9.00
2022-12-24T22:20:50.684Z,9.00
2022-12-24T22:23:18.335Z,8.90
2022-12-24T22:25:45.605Z,8.80
2022-12-24T22:28:12.334Z,8.70
2022-12-24T22:30:40.457Z,8.70
2022-12-24T22:33:08.275Z,8.70
2022-12-24T22:35:41.482Z,8.60
2022-12-24T22:38:09.952Z,8.60
2022-12-24T22:40:39.437Z,8.50
2022-12-24T22:43:06.059Z,8.40
2022-12-24T22:45:32.682Z,8.30
2022-12-24T22:47:59.252Z,8.20
2022-12-24T22:50:26.202Z,8.10
2022-12-24T22:52:53.761Z,8.10
2022-12-24T22:55:20.529Z,8.20
2022-12-24T22:57:47.252Z,8.20
2022-12-24T23:00:38.112Z,8.20
2022-12-24T23:03:05.524Z,8.10
2022-12-24T23:05:32.590Z,8.10
2022-12-24T23:07:59.382Z,8.20
2022-12-24T23:10:26.018Z,8.20
2022-12-24T23:13:15.018Z,8.10
2022-12-24T23:15:42.659Z,8.10
2022-12-24T23:18:09.894Z,8.10
2022-12-24T23:20:42.245Z,8.10
2022-12-24T23:23:09.098Z,8.10
2022-12-24T23:25:35.651Z,8.10
2022-12-24T23:28:02.355Z,8.10
2022-12-24T23:30:29.173Z,8.10
2022-12-24T23:32:55.799Z,8.10
2022-12-24T23:35:22.472Z,8.20
2022-12-24T23:37:49.099Z,8.20
2022-12-24T23:40:15.740Z,8.20
2022-12-24T23:42:42.435Z,8.20
2022-12-24T23:45:09.617Z,8.10
2022-12-24T23:47:36.277Z,8.10
2022-12-24T23:50:04.356Z,8.10
2022-12-24T23:52:30.945Z,8.20
2022-12-24T23:54:57.493Z,8.10
2022-12-24T23:57:24.106Z,8.10
2022-12-24T23:59:50.713Z,8.10
